createdAt,value
2024-03-10T00:00:26.194Z,26.00
2024-03-10T00:02:55.169Z,25.33
2024-03-10T00:05:23.759Z,24.70
2024-03-10T00:07:51.678Z,22.40
2024-03-10T00:10:19.835Z,23.23
2024-03-10T00:12:51.586Z,22.73
2024-03-10T00:15:21.306Z,21.88
2024-03-10T00:17:49.646Z,25.80
2024-03-10T00:20:20.464Z,22.30
2024-03-10T00:22:51.709Z,23.42
2024-03-10T00:25:20.748Z,22.65
2024-03-10T00:27:48.535Z,24.67
2024-03-10T00:30:16.849Z,21.40
2024-03-10T00:32:44.420Z,17.67
2024-03-10T00:35:12.590Z,23.75
2024-03-10T00:37:40.725Z,21.35
2024-03-10T00:40:09.639Z,23.98
2024-03-10T00:42:38.366Z,18.73
2024-03-10T00:45:06.911Z,23.40
2024-03-10T00:47:34.915Z,23.00
2024-03-10T00:50:03.834Z,21.88
2024-03-10T00:52:31.806Z,23.67
2024-03-10T00:54:59.728Z,19.83
2024-03-10T00:57:27.355Z,18.45
2024-03-10T00:59:55.986Z,19.58
2024-03-10T01:02:25.073Z,24.42
2024-03-10T01:04:52.753Z,21.40
2024-03-10T01:07:20.953Z,18.58
2024-03-10T01:09:48.535Z,22.85
2024-03-10T01:12:16.189Z,22.08
2024-03-10T01:14:43.834Z,19.15
2024-03-10T01:17:12.101Z,16.15
2024-03-10T01:19:40.748Z,16.92
2024-03-10T01:22:08.620Z,19.00
2024-03-10T01:24:36.364Z,22.60
2024-03-10T01:27:03.917Z,20.63
2024-03-10T01:29:32.185Z,23.95
2024-03-10T01:31:59.988Z,21.92
2024-03-10T01:34:27.800Z,23.52
2024-03-10T01:36:55.474Z,17.35
2024-03-10T01:39:24.931Z,23.30
2024-03-10T01:41:54.672Z,18.13
2024-03-10T01:44:22.551Z,22.60
2024-03-10T01:46:50.623Z,21.73
2024-03-10T01:49:18.724Z,20.58
2024-03-10T01:51:47.635Z,21.83
2024-03-10T01:54:17.762Z,20.83
2024-03-10T01:56:45.813Z,17.20
2024-03-10T01:59:14.109Z,20.45
2024-03-10T02:01:41.788Z,19.05
2024-03-10T02:04:10.879Z,18.60
2024-03-10T02:06:38.588Z,15.43
2024-03-10T02:09:07.977Z,15.98
2024-03-10T02:11:36.110Z,17.75
2024-03-10T02:14:08.990Z,17.92
2024-03-10T02:16:36.746Z,15.15
2024-03-10T02:19:04.321Z,18.15
2024-03-10T02:21:32.050Z,15.20
2024-03-10T02:24:20.288Z,13.98
2024-03-10T02:26:48.319Z,13.60
2024-03-10T02:29:19.483Z,16.00
2024-03-10T02:32:06.468Z,14.10
2024-03-10T02:34:53.811Z,15.80
2024-03-10T02:37:40.479Z,15.45
2024-03-10T02:40:27.605Z,16.98
2024-03-10T02:43:13.890Z,16.10
2024-03-10T02:46:00.000Z,16.52
2024-03-10T02:48:27.673Z,15.70
2024-03-10T02:50:55.256Z,16.13
2024-03-10T02:53:22.955Z,17.00
2024-03-10T02:55:50.576Z,14.77
2024-03-10T02:58:18.306Z,19.70
2024-03-10T03:00:45.901Z,17.95
2024-03-10T03:03:14.342Z,16.83
2024-03-10T03:05:42.245Z,19.17
2024-03-10T03:08:10.329Z,20.42
2024-03-10T03:10:37.989Z,20.02
2024-03-10T03:13:05.924Z,20.63
2024-03-10T03:15:33.943Z,20.70
2024-03-10T03:18:01.833Z,20.42
2024-03-10T03:20:30.380Z,19.52
2024-03-10T03:22:58.785Z,17.70
2024-03-10T03:25:26.624Z,17.77
2024-03-10T03:27:55.671Z,15.13
2024-03-10T03:30:24.003Z,19.77
2024-03-10T03:32:52.457Z,21.50
2024-03-10T03:35:20.210Z,19.55
2024-03-10T03:37:48.373Z,16.23
2024-03-10T03:40:17.377Z,16.48
2024-03-10T03:42:45.329Z,17.10
2024-03-10T03:45:12.895Z,17.85
2024-03-10T03:47:40.650Z,19.10
2024-03-10T03:50:09.393Z,18.35
2024-03-10T03:52:37.569Z,17.88
2024-03-10T03:55:05.500Z,17.25
2024-03-10T03:57:33.060Z,17.35
2024-03-10T04:00:01.554Z,16.73
2024-03-10T04:02:29.244Z,17.75
2024-03-10T04:04:57.251Z,14.23
2024-03-10T04:07:25.243Z,16.25
2024-03-10T04:09:52.794Z,14.70
2024-03-10T04:12:20.556Z,19.50
2024-03-10T04:14:48.193Z,16.10
2024-03-10T04:17:15.923Z,18.70
2024-03-10T04:19:44.469Z,17.88
2024-03-10T04:22:12.513Z,17.98
2024-03-10T04:24:44.410Z,16.23
2024-03-10T04:27:12.091Z,18.20
2024-03-10T04:29:39.700Z,14.52
2024-03-10T04:32:09.202Z,16.83
2024-03-10T04:34:37.983Z,20.15
2024-03-10T04:37:09.993Z,18.85
2024-03-10T04:39:38.609Z,20.67
2024-03-10T04:42:06.337Z,18.27
2024-03-10T04:44:34.054Z,19.60
2024-03-10T04:47:01.776Z,19.08
2024-03-10T04:49:29.417Z,18.90
2024-03-10T04:51:57.170Z,20.88
2024-03-10T04:54:25.017Z,17.95
2024-03-10T04:56:52.573Z,19.85
2024-03-10T04:59:20.971Z,18.20
2024-03-10T05:01:48.648Z,19.45
2024-03-10T05:04:16.380Z,19.75
2024-03-10T05:06:43.945Z,14.52
2024-03-10T05:09:11.572Z,19.52
2024-03-10T05:11:40.144Z,17.52
2024-03-10T05:14:07.888Z,16.83
2024-03-10T05:16:35.497Z,15.30
2024-03-10T05:19:03.430Z,16.73
2024-03-10T05:21:31.010Z,15.18
2024-03-10T05:23:58.581Z,14.82
2024-03-10T05:26:26.326Z,12.50
2024-03-10T05:28:53.975Z,12.60
2024-03-10T05:31:32.269Z,12.10
2024-03-10T05:34:01.421Z,12.85
2024-03-10T05:36:29.453Z,11.23
2024-03-10T05:38:57.365Z,12.38
2024-03-10T05:41:25.031Z,10.68
2024-03-10T05:43:52.832Z,10.15
2024-03-10T05:46:20.515Z,12.02
2024-03-10T05:48:48.881Z,10.40
2024-03-10T05:51:17.422Z,9.95
2024-03-10T05:53:45.058Z,10.57
2024-03-10T05:56:12.792Z,8.63
2024-03-10T05:58:40.574Z,8.23
2024-03-10T06:01:08.973Z,9.27
2024-03-10T06:03:37.022Z,7.57
2024-03-10T06:06:05.059Z,8.50
2024-03-10T06:08:32.812Z,9.00
2024-03-10T06:11:00.779Z,9.13
2024-03-10T06:13:29.654Z,8.07
2024-03-10T06:15:57.284Z,8.98
2024-03-10T06:18:54.055Z,8.02
2024-03-10T06:21:40.162Z,8.65
2024-03-10T06:24:27.325Z,8.35
2024-03-10T06:26:55.686Z,8.07
2024-03-10T06:29:25.446Z,9.57
2024-03-10T06:31:54.285Z,8.88
2024-03-10T06:34:23.556Z,7.45
2024-03-10T06:36:51.764Z,8.43
2024-03-10T06:39:20.828Z,7.90
2024-03-10T06:41:48.803Z,9.80
2024-03-10T06:44:18.825Z,10.00
2024-03-10T06:46:46.982Z,8.32
2024-03-10T06:49:15.794Z,8.82
2024-03-10T06:51:43.706Z,9.90
2024-03-10T06:54:11.925Z,10.95
2024-03-10T06:56:39.694Z,11.07
2024-03-10T06:59:08.172Z,10.27
2024-03-10T07:01:45.732Z,11.10
2024-03-10T07:04:14.784Z,10.32
2024-03-10T07:06:42.472Z,11.93
2024-03-10T07:09:13.407Z,11.02
2024-03-10T07:11:43.591Z,11.15
2024-03-10T07:14:13.449Z,11.02
2024-03-10T07:16:45.685Z,10.68
2024-03-10T07:19:13.381Z,10.57
2024-03-10T07:21:41.989Z,11.88
2024-03-10T07:24:09.691Z,7.80
2024-03-10T07:26:37.530Z,11.05
2024-03-10T07:29:05.346Z,11.32
2024-03-10T07:31:32.965Z,9.75
2024-03-10T07:34:00.631Z,12.27
2024-03-10T07:36:28.248Z,7.63
2024-03-10T07:38:57.245Z,8.05
2024-03-10T07:41:24.956Z,16.50
2024-03-10T07:43:52.579Z,10.40
2024-03-10T07:46:20.442Z,13.55
2024-03-10T07:48:48.062Z,11.35
2024-03-10T07:51:15.709Z,12.10
2024-03-10T07:53:43.350Z,13.05
2024-03-10T07:56:11.150Z,13.90
2024-03-10T07:58:38.719Z,11.52
2024-03-10T08:01:06.361Z,10.88
2024-03-10T08:03:33.912Z,12.52
2024-03-10T08:06:01.563Z,11.18
2024-03-10T08:08:30.336Z,13.15
2024-03-10T08:10:58.018Z,11.98
2024-03-10T08:13:25.841Z,8.43
2024-03-10T08:15:53.452Z,11.57
2024-03-10T08:18:21.212Z,12.00
2024-03-10T08:20:49.425Z,10.52
2024-03-10T08:23:18.538Z,10.77
2024-03-10T08:25:46.645Z,9.65
2024-03-10T08:28:14.695Z,11.57
2024-03-10T08:30:43.014Z,10.32
2024-03-10T08:33:10.698Z,12.40
2024-03-10T08:35:41.954Z,11.65
2024-03-10T08:38:10.585Z,10.45
2024-03-10T08:40:38.251Z,12.85
2024-03-10T08:43:06.189Z,9.45
2024-03-10T08:45:34.540Z,10.60
2024-03-10T08:48:06.542Z,13.57
2024-03-10T08:50:35.047Z,11.55
2024-03-10T08:53:05.661Z,13.80
2024-03-10T08:55:33.735Z,11.07
2024-03-10T08:58:01.325Z,8.98
2024-03-10T09:00:29.306Z,11.20
2024-03-10T09:02:57.118Z,13.20
2024-03-10T09:05:25.073Z,12.00
2024-03-10T09:07:53.198Z,12.07
2024-03-10T09:10:24.804Z,11.68
2024-03-10T09:12:53.334Z,12.05
2024-03-10T09:15:22.495Z,12.40
2024-03-10T09:17:50.941Z,12.05
2024-03-10T09:20:22.076Z,12.30
2024-03-10T09:22:49.790Z,11.38
2024-03-10T09:25:24.201Z,13.15
2024-03-10T09:27:54.666Z,11.65
2024-03-10T09:30:25.972Z,11.68
2024-03-10T09:32:57.013Z,11.43
2024-03-10T09:35:25.702Z,11.75
2024-03-10T09:37:54.737Z,10.40
2024-03-10T09:40:30.975Z,11.50
2024-03-10T09:43:06.876Z,7.43
2024-03-10T09:46:00.911Z,10.18
2024-03-10T09:48:28.753Z,10.95
2024-03-10T09:50:57.596Z,10.50
2024-03-10T09:53:26.932Z,11.20
2024-03-10T09:55:54.964Z,11.13
2024-03-10T09:58:40.193Z,10.32
2024-03-10T10:01:14.707Z,10.75
2024-03-10T10:03:58.320Z,10.13
2024-03-10T10:06:31.703Z,10.02
2024-03-10T10:09:08.477Z,11.50
2024-03-10T10:11:38.022Z,8.73
2024-03-10T10:14:11.741Z,10.77
2024-03-10T10:16:49.298Z,11.50
2024-03-10T10:19:18.229Z,10.52
2024-03-10T10:21:46.675Z,11.43
2024-03-10T10:24:15.170Z,13.52
2024-03-10T10:26:43.191Z,10.30
2024-03-10T10:29:11.467Z,10.07
2024-03-10T10:31:39.984Z,13.00
2024-03-10T10:34:16.927Z,11.68
2024-03-10T10:36:48.491Z,13.63
2024-03-10T10:39:27.334Z,14.35
2024-03-10T10:42:02.201Z,15.05
2024-03-10T10:44:31.034Z,12.90
2024-03-10T10:47:02.478Z,15.55
2024-03-10T10:49:33.279Z,18.30
2024-03-10T10:52:03.208Z,10.70
2024-03-10T10:54:31.339Z,13.05
2024-03-10T10:57:01.454Z,9.82
2024-03-10T10:59:29.404Z,13.73
2024-03-10T11:02:06.786Z,13.15
2024-03-10T11:04:38.408Z,13.40
2024-03-10T11:07:06.564Z,11.95
2024-03-10T11:09:34.907Z,13.95
2024-03-10T11:12:22.961Z,11.75
2024-03-10T11:14:52.685Z,9.93
2024-03-10T11:17:24.273Z,12.40
2024-03-10T11:19:53.847Z,12.30
2024-03-10T11:22:29.873Z,12.50
2024-03-10T11:25:17.926Z,10.93
2024-03-10T11:27:46.971Z,13.65
2024-03-10T11:30:42.590Z,13.90
2024-03-10T11:33:12.705Z,13.07
2024-03-10T11:35:41.431Z,13.00
2024-03-10T11:38:10.657Z,11.35
2024-03-10T11:40:38.534Z,13.50
2024-03-10T11:43:08.236Z,12.88
2024-03-10T11:45:36.577Z,14.38
2024-03-10T11:48:04.556Z,15.23
2024-03-10T11:50:32.423Z,14.38
2024-03-10T11:53:00.081Z,15.15
2024-03-10T11:55:27.725Z,15.65
2024-03-10T11:57:55.810Z,15.55
2024-03-10T12:00:27.431Z,13.68
2024-03-10T12:02:56.604Z,14.32
2024-03-10T12:05:24.618Z,14.18
2024-03-10T12:07:56.836Z,15.90
2024-03-10T12:10:29.649Z,14.18
2024-03-10T12:12:59.100Z,14.98
2024-03-10T12:15:27.950Z,12.48
2024-03-10T12:17:56.063Z,16.02
2024-03-10T12:20:24.702Z,13.82
2024-03-10T12:22:54.352Z,14.73
2024-03-10T12:25:22.192Z,15.32
2024-03-10T12:27:50.621Z,15.57
2024-03-10T12:30:19.140Z,13.55
2024-03-10T12:32:53.867Z,15.25
2024-03-10T12:35:23.250Z,13.63
2024-03-10T12:37:52.853Z,15.65
2024-03-10T12:40:21.101Z,13.55
2024-03-10T12:42:49.261Z,14.13
2024-03-10T12:45:17.562Z,14.90
2024-03-10T12:47:47.208Z,14.60
2024-03-10T12:50:17.488Z,12.25
2024-03-10T12:52:45.283Z,15.18
2024-03-10T12:55:13.661Z,14.98
2024-03-10T12:57:41.359Z,13.60
2024-03-10T13:00:27.925Z,11.50
2024-03-10T13:03:01.692Z,13.43
2024-03-10T13:05:30.497Z,15.60
2024-03-10T13:08:02.102Z,12.35
2024-03-10T13:10:30.931Z,13.52
2024-03-10T13:12:59.919Z,9.70
2024-03-10T13:15:27.552Z,12.38
2024-03-10T13:17:55.332Z,11.45
2024-03-10T13:20:23.188Z,11.63
2024-03-10T13:22:50.885Z,12.25
2024-03-10T13:25:18.752Z,12.02
2024-03-10T13:27:46.528Z,11.77
2024-03-10T13:30:15.537Z,11.23
2024-03-10T13:32:43.840Z,12.23
2024-03-10T13:35:15.342Z,11.77
2024-03-10T13:37:43.092Z,12.70
2024-03-10T13:40:13.587Z,11.80
2024-03-10T13:42:48.211Z,11.32
2024-03-10T13:45:27.035Z,11.18
2024-03-10T13:48:06.207Z,12.50
2024-03-10T13:50:35.201Z,12.13
2024-03-10T13:53:03.133Z,10.45
2024-03-10T13:55:30.766Z,10.43
2024-03-10T13:57:58.349Z,10.55
2024-03-10T14:00:26.941Z,12.85
2024-03-10T14:02:56.228Z,9.65
2024-03-10T14:05:25.757Z,10.15
2024-03-10T14:07:53.997Z,11.75
2024-03-10T14:10:21.965Z,12.00
2024-03-10T14:12:49.617Z,10.50
2024-03-10T14:15:17.333Z,13.88
2024-03-10T14:17:48.788Z,11.27
2024-03-10T14:20:19.947Z,11.35
2024-03-10T14:22:51.883Z,11.50
2024-03-10T14:25:19.860Z,12.63
2024-03-10T14:27:52.247Z,11.52
2024-03-10T14:30:26.234Z,12.00
2024-03-10T14:32:56.356Z,11.55
2024-03-10T14:35:26.468Z,12.18
2024-03-10T14:37:56.374Z,12.73
2024-03-10T14:40:24.301Z,12.30
2024-03-10T14:42:53.473Z,13.02
2024-03-10T14:45:21.859Z,10.63
2024-03-10T14:47:53.629Z,10.73
2024-03-10T14:50:26.220Z,11.32
2024-03-10T14:52:56.332Z,10.13
2024-03-10T14:55:25.673Z,10.82
2024-03-10T14:57:53.538Z,10.93
2024-03-10T15:00:35.905Z,11.55
2024-03-10T15:03:07.867Z,11.23
2024-03-10T15:05:41.077Z,11.18
2024-03-10T15:08:12.631Z,12.15
2024-03-10T15:10:42.286Z,12.02
2024-03-10T15:13:10.378Z,11.48
2024-03-10T15:15:40.182Z,10.48
2024-03-10T15:18:11.385Z,10.55
2024-03-10T15:20:48.745Z,8.90
2024-03-10T15:23:18.388Z,9.98
2024-03-10T15:25:50.003Z,9.02
2024-03-10T15:28:18.705Z,9.48
2024-03-10T15:30:46.270Z,10.98
2024-03-10T15:33:15.061Z,9.43
2024-03-10T15:35:45.882Z,10.20
2024-03-10T15:38:15.203Z,9.63
2024-03-10T15:40:44.017Z,9.45
2024-03-10T15:43:13.923Z,10.70
2024-03-10T15:45:43.114Z,10.40
2024-03-10T15:48:11.343Z,10.07
2024-03-10T15:50:39.445Z,10.43
2024-03-10T15:53:07.700Z,9.63
2024-03-10T15:55:35.469Z,11.40
2024-03-10T15:58:03.224Z,9.32
2024-03-10T16:00:31.468Z,11.15
2024-03-10T16:03:06.573Z,16.83
2024-03-10T16:05:44.382Z,20.52
2024-03-10T16:08:13.177Z,10.38
2024-03-10T16:10:43.141Z,10.13
2024-03-10T16:13:21.899Z,8.85
2024-03-10T16:15:49.681Z,8.48
2024-03-10T16:18:18.606Z,7.22
2024-03-10T16:20:46.935Z,8.23
2024-03-10T16:23:15.396Z,10.13
2024-03-10T16:25:43.669Z,8.30
2024-03-10T16:28:11.354Z,10.60
2024-03-10T16:30:39.129Z,10.88
2024-03-10T16:33:06.728Z,9.82
2024-03-10T16:35:34.393Z,11.38
2024-03-10T16:38:02.114Z,10.45
2024-03-10T16:40:29.728Z,8.50
2024-03-10T16:42:57.769Z,11.65
2024-03-10T16:45:25.399Z,10.52
2024-03-10T16:47:53.348Z,11.77
2024-03-10T16:50:28.269Z,12.07
2024-03-10T16:52:58.180Z,11.48
2024-03-10T16:55:26.041Z,10.50
2024-03-10T16:58:00.896Z,11.43
2024-03-10T17:00:32.333Z,10.70
2024-03-10T17:03:12.831Z,10.13
2024-03-10T17:05:40.895Z,10.13
2024-03-10T17:08:11.220Z,12.25
2024-03-10T17:10:39.504Z,9.68
2024-03-10T17:13:07.385Z,7.90
2024-03-10T17:15:38.772Z,10.70
2024-03-10T17:18:07.829Z,10.02
2024-03-10T17:20:38.411Z,10.98
2024-03-10T17:23:09.796Z,9.45
2024-03-10T17:25:37.402Z,7.68
2024-03-10T17:28:06.070Z,9.95
2024-03-10T17:30:35.704Z,11.48
2024-03-10T17:33:04.653Z,12.35
2024-03-10T17:35:32.617Z,11.65
2024-03-10T17:38:01.478Z,12.98
2024-03-10T17:44:07.353Z,12.27
2024-03-10T17:46:35.166Z,11.32
2024-03-10T17:49:05.487Z,12.20
2024-03-10T17:51:33.491Z,13.10
2024-03-10T17:54:01.120Z,13.07
2024-03-10T17:56:28.767Z,7.57
2024-03-10T17:58:56.420Z,13.82
2024-03-10T18:01:24.352Z,13.60
2024-03-10T18:03:52.687Z,13.25
2024-03-10T18:06:20.284Z,11.15
2024-03-10T18:08:47.907Z,14.07
2024-03-10T18:11:16.095Z,14.00
2024-03-10T18:13:43.941Z,14.30
2024-03-10T18:16:16.076Z,15.38
2024-03-10T18:18:43.731Z,14.82
2024-03-10T18:21:12.453Z,12.38
2024-03-10T18:23:41.180Z,15.63
2024-03-10T18:26:10.155Z,14.93
2024-03-10T18:28:38.305Z,15.73
2024-03-10T18:31:06.062Z,14.82
2024-03-10T18:33:34.062Z,15.00
2024-03-10T18:36:02.547Z,14.02
2024-03-10T18:38:30.762Z,15.32
2024-03-10T18:40:58.349Z,14.00
2024-03-10T18:43:25.990Z,16.02
2024-03-10T18:45:54.393Z,15.40
2024-03-10T18:48:22.169Z,15.02
2024-03-10T18:50:54.596Z,16.63
2024-03-10T18:53:28.135Z,14.45
2024-03-10T18:55:56.455Z,10.02
2024-03-10T18:58:24.182Z,13.35
2024-03-10T19:00:52.928Z,13.88
2024-03-10T19:03:20.947Z,14.02
2024-03-10T19:05:48.867Z,12.43
2024-03-10T19:08:16.501Z,12.50
2024-03-10T19:10:44.167Z,11.82
2024-03-10T19:13:12.886Z,12.25
2024-03-10T19:15:40.840Z,13.38
2024-03-10T19:18:09.148Z,11.00
2024-03-10T19:20:36.902Z,12.05
2024-03-10T19:23:08.359Z,11.88
2024-03-10T19:25:36.096Z,12.25
2024-03-10T19:28:03.988Z,12.60
2024-03-10T19:30:31.783Z,11.32
2024-03-10T19:33:02.200Z,9.75
2024-03-10T19:35:29.968Z,11.98
2024-03-10T19:37:57.599Z,10.65
2024-03-10T19:40:26.197Z,11.50
2024-03-10T19:42:58.886Z,11.57
2024-03-10T19:45:26.501Z,11.18
2024-03-10T19:47:54.171Z,11.07
2024-03-10T19:50:21.883Z,11.80
2024-03-10T19:52:50.917Z,9.57
2024-03-10T19:55:18.752Z,10.63
2024-03-10T19:57:46.360Z,11.40
2024-03-10T20:00:16.220Z,10.23
2024-03-10T20:02:48.085Z,10.13
2024-03-10T20:05:16.295Z,10.90
2024-03-10T20:07:48.797Z,11.50
2024-03-10T20:10:19.624Z,12.50
2024-03-10T20:12:49.458Z,10.77
2024-03-10T20:15:17.995Z,9.90
2024-03-10T20:17:49.019Z,12.50
2024-03-10T20:20:23.626Z,11.60
2024-03-10T20:22:56.859Z,11.80
2024-03-10T20:25:26.050Z,9.07
2024-03-10T20:27:57.047Z,11.45
2024-03-10T20:30:26.352Z,13.25
2024-03-10T20:32:53.986Z,12.07
2024-03-10T20:35:22.420Z,12.60
2024-03-10T20:37:50.262Z,11.15
2024-03-10T20:40:18.151Z,12.30
2024-03-10T20:42:48.236Z,10.15
2024-03-10T20:45:16.373Z,9.70
2024-03-10T20:47:50.169Z,10.15
2024-03-10T20:50:24.447Z,12.65
2024-03-10T20:52:53.912Z,12.02
2024-03-10T20:55:21.798Z,11.68
2024-03-10T20:57:49.398Z,11.43
2024-03-10T21:00:20.720Z,11.77
2024-03-10T21:02:50.196Z,12.32
2024-03-10T21:05:18.795Z,12.85
2024-03-10T21:07:46.569Z,12.30
2024-03-10T21:10:16.018Z,13.13
2024-03-10T21:12:46.375Z,13.57
2024-03-10T21:15:15.377Z,12.75
2024-03-10T21:17:43.489Z,14.77
2024-03-10T21:20:14.300Z,12.98
2024-03-10T21:22:42.208Z,13.13
2024-03-10T21:25:10.475Z,13.25
2024-03-10T21:27:48.225Z,14.25
2024-03-10T21:30:19.138Z,13.00
2024-03-10T21:32:47.208Z,11.27
2024-03-10T21:35:16.939Z,12.95
2024-03-10T21:37:44.898Z,12.27
2024-03-10T21:40:13.678Z,11.50
2024-03-10T21:42:41.965Z,12.32
2024-03-10T21:45:10.183Z,11.50
2024-03-10T21:47:41.617Z,12.30
2024-03-10T21:50:11.696Z,11.30
2024-03-10T21:52:40.010Z,12.55
2024-03-10T21:55:08.325Z,11.75
2024-03-10T21:57:35.947Z,15.00
2024-03-10T22:00:15.696Z,11.30
2024-03-10T22:02:44.870Z,12.55
2024-03-10T22:05:13.234Z,14.50
2024-03-10T22:07:42.340Z,12.77
2024-03-10T22:10:10.706Z,11.07
2024-03-10T22:12:38.873Z,11.80
2024-03-10T22:15:07.573Z,11.30
2024-03-10T22:17:35.180Z,11.82
2024-03-10T22:20:03.115Z,22.10
2024-03-10T22:22:30.739Z,12.52
2024-03-10T22:25:00.145Z,10.88
2024-03-10T22:27:27.729Z,23.90
2024-03-10T22:29:55.260Z,11.68
2024-03-10T22:32:22.945Z,19.23
2024-03-10T22:34:50.635Z,13.32
2024-03-10T22:37:20.757Z,17.77
2024-03-10T22:39:48.497Z,21.08
2024-03-10T22:42:16.099Z,18.55
2024-03-10T22:44:49.148Z,18.13
2024-03-10T22:47:22.664Z,19.33
2024-03-10T22:49:50.351Z,20.58
2024-03-10T22:52:18.198Z,21.30
2024-03-10T22:54:45.759Z,23.02
2024-03-10T22:57:13.445Z,22.13
2024-03-10T22:59:42.458Z,22.50
2024-03-10T23:02:10.345Z,24.10
2024-03-10T23:04:38.367Z,22.30
2024-03-10T23:07:07.040Z,21.27
2024-03-10T23:09:35.315Z,22.35
2024-03-10T23:12:04.085Z,23.42
2024-03-10T23:14:32.861Z,23.25
2024-03-10T23:17:01.619Z,23.50
2024-03-10T23:19:30.001Z,19.27
2024-03-10T23:21:57.643Z,24.00
2024-03-10T23:24:25.159Z,25.60
2024-03-10T23:26:54.776Z,23.48
2024-03-10T23:29:22.457Z,25.20
2024-03-10T23:31:50.755Z,16.17
2024-03-10T23:34:18.377Z,24.13
2024-03-10T23:36:46.049Z,23.48
2024-03-10T23:39:13.903Z,22.23
2024-03-10T23:41:43.320Z,24.48
2024-03-10T23:44:13.094Z,22.48
2024-03-10T23:46:40.707Z,23.25
2024-03-10T23:49:08.292Z,24.55
2024-03-10T23:51:35.859Z,24.30
2024-03-10T23:54:03.583Z,22.55
2024-03-10T23:56:31.191Z,23.02
2024-03-10T23:58:59.955Z,18.30
